Time;durP1;ratioP1;P1;durP2;ratioP2;P2;SDS_P1;SDS_P2;PMS_P1;PMS_P2;Temp;Humidity;BMP_temperature;BMP_pressure;BME280_temperature;BME280_humidity;BME280_pressure;Samples;Min_cycle;Max_cycle;Signal;HPM_P1;HPM_P2
2022/08/10 00:00:21;;;;;;;6.50;5.32;;;17.20;99.90;;;;;;4968118;28;20054;-79
2022/08/10 00:02:51;;;;;;;8.20;5.05;;;17.20;99.90;;;;;;4995568;28;20057;-77
2022/08/10 00:05:17;;;;;;;5.72;5.13;;;17.10;99.90;;;;;;4999354;28;20047;-78
2022/08/10 00:07:43;;;;;;;7.38;5.78;;;17.10;99.90;;;;;;4995408;28;20042;-78
2022/08/10 00:10:11;;;;;;;6.13;4.45;;;17.10;99.90;;;;;;4933407;28;20050;-78
2022/08/10 00:12:37;;;;;;;5.95;4.75;;;17.10;99.90;;;;;;4948554;28;20058;-79
2022/08/10 00:15:04;;;;;;;5.15;4.65;;;17.00;99.90;;;;;;4979934;28;20043;-78
2022/08/10 00:17:30;;;;;;;7.95;4.90;;;16.80;99.90;;;;;;4956303;28;20054;-78
2022/08/10 00:19:55;;;;;;;6.90;4.63;;;17.00;99.90;;;;;;4980317;28;20408;-78
2022/08/10 00:22:21;;;;;;;6.28;4.40;;;17.10;99.90;;;;;;4951522;28;20088;-78
2022/08/10 00:24:47;;;;;;;6.20;4.43;;;17.00;99.90;;;;;;4930596;28;20060;-77
2022/08/10 00:27:13;;;;;;;6.40;4.90;;;17.00;99.90;;;;;;4979685;28;20082;-78
2022/08/10 00:29:38;;;;;;;5.22;4.50;;;17.00;99.90;;;;;;4979298;28;20129;-79
2022/08/10 00:32:04;;;;;;;6.05;4.28;;;17.00;99.90;;;;;;4965232;28;20205;-78
2022/08/10 00:34:32;;;;;;;6.53;4.85;;;17.00;99.90;;;;;;4980476;28;20480;-78
2022/08/10 00:36:58;;;;;;;5.97;4.30;;;17.00;99.90;;;;;;4966465;28;20050;-77
2022/08/10 00:39:24;;;;;;;6.72;5.10;;;17.00;99.90;;;;;;4973778;28;20054;-77
2022/08/10 00:41:50;;;;;;;6.10;4.50;;;17.00;99.90;;;;;;4996745;28;20050;-76
2022/08/10 00:44:16;;;;;;;6.25;4.53;;;16.90;99.90;;;;;;4962258;28;20064;-78
2022/08/10 00:46:42;;;;;;;6.90;5.40;;;16.90;99.90;;;;;;4949574;28;20051;-79
2022/08/10 00:49:08;;;;;;;7.05;5.32;;;16.90;99.90;;;;;;4980367;28;20205;-78
2022/08/10 00:51:33;;;;;;;5.57;4.97;;;16.80;99.90;;;;;;4979634;28;20050;-78
2022/08/10 00:54:01;;;;;;;5.70;5.10;;;16.80;99.90;;;;;;4933612;28;20078;-77
2022/08/10 00:56:27;;;;;;;6.65;5.07;;;16.70;99.90;;;;;;4971540;28;20058;-78
2022/08/10 00:58:53;;;;;;;6.28;4.90;;;16.70;99.90;;;;;;4948497;28;20134;-76
2022/08/10 01:01:19;;;;;;;7.05;5.30;;;16.70;99.90;;;;;;4977573;28;20050;-78
2022/08/10 01:03:44;;;;;;;5.53;5.00;;;16.60;99.90;;;;;;4932668;28;20050;-78
2022/08/10 01:06:22;;;;;;;6.15;5.10;;;16.60;99.90;;;;;;4979620;28;20130;-78
2022/08/10 01:09:01;;;;;;;7.88;5.45;;;16.50;99.90;;;;;;4995760;28;20096;-78
2022/08/10 01:11:37;;;;;;;6.68;4.75;;;16.50;99.90;;;;;;4993524;28;20051;-78
2022/08/10 01:14:16;;;;;;;7.78;5.40;;;16.50;99.90;;;;;;4995204;28;20554;-78
2022/08/10 01:16:52;;;;;;;6.10;4.65;;;16.40;99.90;;;;;;4998483;28;20458;-79
2022/08/10 01:19:27;;;;;;;6.15;4.82;;;16.40;99.90;;;;;;4996159;28;22811;-78
2022/08/10 01:22:30;;;;;;;6.65;5.20;;;16.40;99.90;;;;;;4979857;28;20084;-79
2022/08/10 01:25:09;;;;;;;5.45;4.93;;;16.30;99.90;;;;;;4991608;28;20473;-78
2022/08/10 01:27:37;;;;;;;5.40;4.70;;;16.30;99.90;;;;;;4965792;28;20057;-79
2022/08/10 01:30:10;;;;;;;5.50;5.00;;;16.30;99.90;;;;;;4995654;28;20133;-78
2022/08/10 01:32:47;;;;;;;6.22;4.95;;;16.30;99.90;;;;;;4982565;28;20055;-79
2022/08/10 01:35:16;;;;;;;6.78;4.57;;;16.30;99.90;;;;;;4994889;28;20053;-77
2022/08/10 01:38:10;;;;;;;6.28;5.10;;;16.30;99.90;;;;;;4994252;28;20055;-77
2022/08/10 01:40:43;;;;;;;6.63;4.80;;;16.30;99.90;;;;;;4943891;28;20077;-76
2022/08/10 01:43:13;;;;;;;5.72;4.40;;;16.30;99.90;;;;;;4977262;28;20452;-78
2022/08/10 01:45:43;;;;;;;5.50;4.70;;;16.20;99.90;;;;;;4949813;28;20096;-78
2022/08/10 01:48:29;;;;;;;5.72;4.82;;;16.20;99.90;;;;;;4977629;28;20067;-78
2022/08/10 01:50:59;;;;;;;;;;;16.20;99.90;;;;;;4996376;28;20075;-78
2022/08/10 01:53:31;;;;;;;6.38;4.97;;;16.20;99.90;;;;;;4947525;28;19926;-77
2022/08/10 01:55:58;;;;;;;7.38;5.20;;;16.10;99.90;;;;;;4951462;28;20061;-79
2022/08/10 01:58:25;;;;;;;5.95;5.07;;;16.10;99.90;;;;;;4981541;28;20050;-79
2022/08/10 02:00:53;;;;;;;7.32;5.43;;;16.10;99.90;;;;;;4982353;28;20089;-77
2022/08/10 02:03:21;;;;;;;6.03;4.57;;;16.10;99.90;;;;;;4991775;28;20050;-78
2022/08/10 02:05:51;;;;;;;5.97;5.28;;;16.10;99.90;;;;;;4963318;28;20420;-79
2022/08/10 02:08:19;;;;;;;6.20;5.10;;;16.10;99.90;;;;;;4993713;28;20129;-78
2022/08/10 02:10:46;;;;;;;5.55;4.63;;;16.00;99.90;;;;;;4963746;28;20034;-78
2022/08/10 02:13:15;;;;;;;6.03;4.63;;;16.00;99.90;;;;;;4948183;28;20094;-79
2022/08/10 02:15:44;;;;;;;6.32;5.03;;;16.00;99.90;;;;;;4985096;28;20080;-78
2022/08/10 02:18:11;;;;;;;6.07;4.93;;;16.00;99.90;;;;;;4982840;28;20047;-77
2022/08/10 02:20:43;;;;;;;5.85;4.82;;;16.10;99.90;;;;;;4951844;28;20051;-78
2022/08/10 02:23:23;;;;;;;6.38;4.35;;;16.10;99.90;;;;;;4977083;28;20045;-78
2022/08/10 02:25:51;;;;;;;6.22;4.60;;;16.00;99.90;;;;;;4933871;28;20101;-79
2022/08/10 02:28:20;;;;;;;9.65;5.82;;;16.10;99.90;;;;;;4979420;28;20173;-78
2022/08/10 02:30:48;;;;;;;5.60;4.57;;;16.00;99.90;;;;;;4995500;28;20109;-78
2022/08/10 02:33:16;;;;;;;5.00;4.25;;;16.10;99.90;;;;;;4976590;28;20488;-77
2022/08/10 02:35:44;;;;;;;5.70;4.78;;;16.00;99.90;;;;;;4984583;28;20050;-77
2022/08/10 02:38:12;;;;;;;7.15;5.32;;;16.10;99.90;;;;;;4994415;28;20058;-78
2022/08/10 02:40:45;;;;;;;6.78;5.25;;;16.10;99.90;;;;;;4977825;28;20205;-78
2022/08/10 02:43:21;;;;;;;6.35;5.03;;;16.10;99.90;;;;;;4993532;28;20468;-78
2022/08/10 02:45:53;;;;;;;6.60;5.25;;;16.00;99.90;;;;;;4993072;28;20527;-78
2022/08/10 02:48:42;;;;;;;6.60;5.43;;;16.00;99.90;;;;;;4978655;28;20081;-77
2022/08/10 02:51:17;;;;;;;7.10;6.07;;;16.00;99.90;;;;;;4944394;28;20066;-77
2022/08/10 02:53:46;;;;;;;5.88;4.97;;;16.00;99.90;;;;;;4947202;28;20395;-77
2022/08/10 02:56:25;;;;;;;6.50;5.05;;;16.00;99.90;;;;;;4977111;28;20312;-77
2022/08/10 02:59:13;;;;;;;6.38;5.40;;;16.00;99.90;;;;;;4978602;28;20054;-75
2022/08/10 03:01:46;;;;;;;6.78;5.63;;;15.90;99.90;;;;;;4996543;28;20088;-79
2022/08/10 03:04:18;;;;;;;6.93;6.10;;;15.90;99.90;;;;;;4978257;28;20684;-77
2022/08/10 03:06:51;;;;;;;6.45;4.93;;;15.90;99.90;;;;;;4997565;28;20047;-78
2022/08/10 03:09:17;;;;;;;6.97;5.50;;;15.90;99.90;;;;;;4993775;28;20062;-78
2022/08/10 03:11:44;;;;;;;7.18;5.75;;;15.80;99.90;;;;;;4978111;28;20070;-78
2022/08/10 03:14:10;;;;;;;7.13;6.38;;;15.80;99.90;;;;;;4927683;28;20065;-78
2022/08/10 03:16:38;;;;;;;6.88;5.38;;;15.80;99.90;;;;;;4991344;28;20169;-78
2022/08/10 03:19:05;;;;;;;5.97;5.38;;;15.80;99.90;;;;;;4984965;28;20089;-78
2022/08/10 03:21:31;;;;;;;8.50;5.75;;;15.80;99.90;;;;;;4994483;28;20054;-78
2022/08/10 03:24:01;;;;;;;7.55;5.55;;;15.80;99.90;;;;;;4996897;28;20141;-78
2022/08/10 03:26:31;;;;;;;7.20;5.60;;;15.70;99.90;;;;;;4997628;28;20138;-78
2022/08/10 03:28:58;;;;;;;8.82;6.00;;;15.70;99.90;;;;;;4962706;28;20046;-79
2022/08/10 03:31:28;;;;;;;9.70;6.90;;;15.80;99.90;;;;;;4980945;28;20057;-78
2022/08/10 03:33:54;;;;;;;7.05;5.80;;;15.70;99.90;;;;;;4933476;28;20046;-77
2022/08/10 03:36:21;;;;;;;7.35;6.65;;;15.70;99.90;;;;;;4956891;28;20050;-76
2022/08/10 03:38:50;;;;;;;8.15;5.30;;;15.80;99.90;;;;;;4976576;28;20116;-76
2022/08/10 03:41:21;;;;;;;6.43;5.32;;;15.80;99.90;;;;;;4940554;28;20291;-77
2022/08/10 03:43:49;;;;;;;9.73;5.80;;;15.80;99.90;;;;;;4981929;28;20061;-78
2022/08/10 03:46:18;;;;;;;7.88;5.32;;;15.80;99.90;;;;;;4996738;28;20062;-77
2022/08/10 03:48:45;;;;;;;7.63;6.00;;;15.80;99.90;;;;;;4978876;28;20091;-78
2022/08/10 03:51:11;;;;;;;7.70;5.60;;;15.80;99.90;;;;;;4974848;28;20080;-77
2022/08/10 03:53:38;;;;;;;7.38;6.38;;;15.80;99.90;;;;;;4980929;28;20106;-78
2022/08/10 03:56:04;;;;;;;7.70;5.20;;;15.80;99.90;;;;;;4943607;28;20051;-78
2022/08/10 03:58:31;;;;;;;8.35;6.72;;;15.80;99.90;;;;;;4961686;28;20105;-77
2022/08/10 04:00:57;;;;;;;8.02;6.00;;;15.80;99.90;;;;;;4991912;28;20130;-78
2022/08/10 04:03:23;;;;;;;9.57;6.50;;;15.80;99.90;;;;;;4991031;28;20130;-78
2022/08/10 04:05:48;;;;;;;7.82;6.50;;;15.90;99.90;;;;;;4963954;28;20133;-78
2022/08/10 04:08:15;;;;;;;9.05;6.72;;;15.90;99.90;;;;;;4961374;28;20118;-78
2022/08/10 04:10:41;;;;;;;7.43;5.90;;;15.90;99.90;;;;;;4979452;28;20118;-78
2022/08/10 04:13:06;;;;;;;8.05;5.93;;;15.90;99.90;;;;;;4963360;28;20138;-78
2022/08/10 04:15:32;;;;;;;8.32;6.43;;;15.90;99.90;;;;;;4950895;28;20039;-78
2022/08/10 04:17:58;;;;;;;7.57;5.75;;;15.90;99.90;;;;;;4933971;28;20063;-75
2022/08/10 04:20:40;;;;;;;7.45;6.68;;;15.90;99.90;;;;;;4954762;28;20112;-77
2022/08/10 04:23:21;;;;;;;8.00;6.10;;;15.90;99.90;;;;;;4940254;28;20081;-78
2022/08/10 04:25:48;;;;;;;8.88;6.75;;;15.90;99.90;;;;;;4977767;28;20423;-76
2022/08/10 04:28:14;;;;;;;8.07;6.57;;;15.90;99.90;;;;;;4946684;29;20054;-79
2022/08/10 04:30:41;;;;;;;6.82;5.88;;;15.90;99.90;;;;;;4949079;28;20066;-78
2022/08/10 04:33:09;;;;;;;8.32;6.60;;;15.90;99.90;;;;;;4973426;28;20047;-77
2022/08/10 04:35:36;;;;;;;7.75;6.53;;;15.90;99.90;;;;;;4995481;28;20047;-79
2022/08/10 04:38:04;;;;;;;8.00;6.60;;;15.90;99.90;;;;;;4978580;28;20517;-79
2022/08/10 04:40:30;;;;;;;8.07;6.65;;;15.90;99.90;;;;;;4963132;28;20662;-78
2022/08/10 04:43:02;;;;;;;9.27;6.00;;;15.90;99.90;;;;;;4945402;28;20065;-79
2022/08/10 04:45:28;;;;;;;9.88;7.10;;;15.90;99.90;;;;;;4957227;28;20042;-78
2022/08/10 04:47:54;;;;;;;6.60;5.85;;;15.90;99.90;;;;;;4929242;28;20066;-79
2022/08/10 04:50:19;;;;;;;8.18;6.22;;;15.90;99.90;;;;;;4958469;28;20154;-78
2022/08/10 04:52:45;;;;;;;9.73;6.78;;;16.00;99.90;;;;;;4959707;28;20054;-78
2022/08/10 04:55:11;;;;;;;8.95;6.65;;;16.00;99.90;;;;;;4936615;28;20480;-78
2022/08/10 04:57:37;;;;;;;8.45;7.32;;;16.00;99.90;;;;;;4946940;28;20132;-78
2022/08/10 05:00:04;;;;;;;9.15;7.53;;;16.00;99.90;;;;;;4929611;28;20496;-78
2022/08/10 05:02:30;;;;;;;6.70;5.78;;;16.00;99.90;;;;;;4959719;28;20055;-79
2022/08/10 05:04:55;;;;;;;9.68;6.25;;;16.00;99.90;;;;;;4929503;28;20047;-77
2022/08/10 05:07:21;;;;;;;8.90;6.40;;;16.00;99.90;;;;;;4936977;28;20047;-78
2022/08/10 05:09:49;;;;;;;7.88;6.50;;;16.10;99.90;;;;;;4961043;28;20102;-79
2022/08/10 05:12:15;;;;;;;7.78;6.40;;;16.10;99.90;;;;;;4989664;28;20082;-77
2022/08/10 05:14:40;;;;;;;9.45;7.00;;;16.80;99.90;;;;;;4960890;28;20074;-77
2022/08/10 05:17:06;;;;;;;9.10;6.15;;;16.10;99.90;;;;;;4952284;28;20043;-78
2022/08/10 05:19:32;;;;;;;8.98;6.18;;;16.10;99.90;;;;;;4958202;28;20086;-77
2022/08/10 05:21:57;;;;;;;8.07;6.53;;;16.20;99.90;;;;;;4958274;28;20051;-77
2022/08/10 05:24:23;;;;;;;9.52;7.40;;;16.20;99.90;;;;;;4944474;28;20065;-80
2022/08/10 05:26:50;;;;;;;9.18;6.78;;;16.20;99.90;;;;;;4936004;28;20047;-82
2022/08/10 05:29:16;;;;;;;8.02;6.72;;;16.30;99.90;;;;;;4944206;28;20051;-79
2022/08/10 05:31:42;;;;;;;9.63;6.95;;;16.30;99.90;;;;;;4935926;28;20097;-80
2022/08/10 05:34:08;;;;;;;9.45;6.20;;;16.40;99.90;;;;;;4962103;28;20097;-80
2022/08/10 05:36:35;;;;;;;9.57;6.70;;;16.40;99.90;;;;;;4957370;28;20181;-82
2022/08/10 05:39:01;;;;;;;8.93;6.10;;;16.50;99.90;;;;;;4964832;28;20492;-82
2022/08/10 05:41:28;;;;;;;9.98;6.75;;;16.50;99.90;;;;;;4959191;28;20098;-81
2022/08/10 05:43:55;;;;;;;10.18;7.15;;;16.50;99.90;;;;;;4992575;28;20050;-82
2022/08/10 05:46:21;;;;;;;8.90;7.65;;;16.60;99.90;;;;;;4952683;28;20162;-78
2022/08/10 05:48:48;;;;;;;10.15;7.28;;;16.60;99.90;;;;;;4958240;28;20142;-80
2022/08/10 05:51:15;;;;;;;8.43;7.00;;;16.70;99.90;;;;;;4977988;28;20058;-79
2022/08/10 05:53:43;;;;;;;8.95;7.85;;;16.70;99.90;;;;;;4942844;28;20050;-80
2022/08/10 05:56:10;;;;;;;8.52;7.22;;;16.80;99.90;;;;;;4928791;28;20151;-79
2022/08/10 05:58:36;;;;;;;11.57;6.80;;;16.80;99.90;;;;;;4976683;28;20062;-80
2022/08/10 06:01:11;;;;;;;9.93;6.57;;;16.90;99.90;;;;;;4960685;28;20500;-81
2022/08/10 06:03:45;;;;;;;9.07;6.90;;;16.90;99.90;;;;;;4974426;28;20075;-80
2022/08/10 06:06:12;;;;;;;10.20;7.95;;;17.00;99.90;;;;;;4987446;28;20130;-80
2022/08/10 06:08:41;;;;;;;7.38;6.65;;;17.10;99.90;;;;;;4976243;28;20062;-80
2022/08/10 06:11:10;;;;;;;10.10;7.43;;;17.20;99.90;;;;;;4975106;28;20077;-81
2022/08/10 06:16:23;;;;;;;;;;;17.40;99.90;;;;;;4962886;28;20404;-82
2022/08/10 06:18:50;;;;;;;8.80;6.68;;;17.50;99.90;;;;;;4974230;28;20008;-80
2022/08/10 06:21:17;;;;;;;7.68;6.63;;;17.60;99.90;;;;;;4977513;28;20043;-81
2022/08/10 06:23:43;;;;;;;9.25;7.82;;;17.70;99.90;;;;;;4951010;28;20054;-79
2022/08/10 06:26:09;;;;;;;10.40;7.78;;;17.80;99.90;;;;;;4974757;28;20436;-78
2022/08/10 06:28:41;;;;;;;9.25;7.50;;;17.90;99.90;;;;;;4942343;28;20053;-81
2022/08/10 06:31:08;;;;;;;9.10;7.85;;;18.10;99.90;;;;;;4987981;28;20559;-80
2022/08/10 06:33:37;;;;;;;11.90;7.55;;;18.20;99.90;;;;;;4989372;28;20113;-81
2022/08/10 06:36:06;;;;;;;7.18;6.25;;;18.30;99.90;;;;;;4959263;28;20039;-82
2022/08/10 06:38:33;;;;;;;7.78;6.40;;;18.40;99.90;;;;;;4943157;28;20053;-82
2022/08/10 06:41:06;;;;;;;8.30;6.13;;;18.60;99.90;;;;;;4956238;28;20501;-82
2022/08/10 06:43:34;;;;;;;10.20;5.32;;;19.20;99.90;;;;;;4959163;28;20097;-81
2022/08/10 06:46:04;;;;;;;6.28;5.35;;;18.80;99.90;;;;;;4974709;28;20043;-80
2022/08/10 06:48:53;;;;;;;6.18;4.82;;;19.00;99.90;;;;;;4988909;28;20083;-81
2022/08/10 06:51:38;;;;;;;6.93;4.30;;;19.10;99.90;;;;;;4984342;28;20122;-80
2022/08/10 06:54:06;;;;;;;7.57;4.43;;;19.30;99.90;;;;;;4957744;28;20074;-81
2022/08/10 06:56:44;;;;;;;4.57;3.90;;;19.40;99.90;;;;;;4945107;28;20298;-80
2022/08/10 06:59:26;;;;;;;13.02;4.55;;;19.60;99.90;;;;;;4977554;28;20047;-81
2022/08/10 07:01:58;;;;;;;6.43;3.53;;;19.70;99.90;;;;;;4961162;28;20090;-81
2022/08/10 07:04:32;;;;;;;4.57;3.40;;;19.80;99.90;;;;;;4948784;28;20362;-81
2022/08/10 07:07:01;;;;;;;4.47;3.42;;;20.00;99.90;;;;;;4981596;28;20052;-81
2022/08/10 07:09:29;;;;;;;4.10;3.25;;;20.10;99.90;;;;;;4993021;28;20043;-81
2022/08/10 07:11:56;;;;;;;5.05;2.80;;;20.20;99.90;;;;;;4948998;28;20096;-81
2022/08/10 07:14:24;;;;;;;4.82;2.75;;;20.40;99.90;;;;;;4962771;28;20054;-82
2022/08/10 07:16:51;;;;;;;3.97;2.58;;;20.50;99.90;;;;;;4993945;28;20047;-81
2022/08/10 07:19:18;;;;;;;4.10;2.47;;;20.70;99.90;;;;;;4961096;28;20054;-83
2022/08/10 07:21:45;;;;;;;3.20;2.65;;;20.90;99.90;;;;;;4974950;28;20481;-81
2022/08/10 07:24:13;;;;;;;3.65;2.28;;;21.00;99.90;;;;;;4959439;28;20039;-82
2022/08/10 07:26:45;;;;;;;4.63;2.50;;;21.20;99.90;;;;;;4948512;28;20085;-82
2022/08/10 07:29:14;;;;;;;4.30;2.60;;;21.40;99.90;;;;;;4957976;28;20587;-83
2022/08/10 07:31:42;;;;;;;5.03;2.38;;;21.50;99.90;;;;;;4977728;28;20528;-82
2022/08/10 07:34:09;;;;;;;4.22;2.22;;;21.70;99.90;;;;;;4961176;28;20066;-82
2022/08/10 07:36:36;;;;;;;4.45;2.50;;;21.90;99.90;;;;;;4977822;28;20057;-81
2022/08/10 07:39:04;;;;;;;4.72;2.80;;;21.90;99.90;;;;;;4976083;28;20051;-83
2022/08/10 07:41:32;;;;;;;5.57;2.60;;;22.20;99.90;;;;;;4961424;28;20059;-83
2022/08/10 07:44:01;;;;;;;3.88;2.08;;;22.40;99.90;;;;;;4991950;28;20402;-84
2022/08/10 07:46:29;;;;;;;3.92;2.60;;;22.20;99.90;;;;;;4991134;28;20105;-82
2022/08/10 07:49:19;;;;;;;3.55;2.20;;;22.70;99.90;;;;;;4962993;28;20063;-82
2022/08/10 07:51:49;;;;;;;3.50;2.03;;;22.50;99.90;;;;;;4976721;28;20066;-82
2022/08/10 07:54:16;;;;;;;3.13;2.10;;;23.10;99.90;;;;;;4977110;28;20047;-81
2022/08/10 07:56:46;;;;;;;3.65;2.33;;;23.30;99.90;;;;;;4977819;28;20109;-82
2022/08/10 07:59:17;;;;;;;3.53;2.60;;;23.40;99.90;;;;;;4945088;28;20043;-82
2022/08/10 08:01:50;;;;;;;3.80;2.20;;;23.60;99.90;;;;;;4975842;28;20062;-82
2022/08/10 08:04:20;;;;;;;3.53;2.15;;;23.80;99.90;;;;;;4961627;28;20057;-81
2022/08/10 08:06:47;;;;;;;5.50;2.33;;;24.00;99.90;;;;;;4975769;28;20046;-81
2022/08/10 08:09:13;;;;;;;5.13;2.70;;;24.10;99.90;;;;;;4972955;28;20062;-81
2022/08/10 08:11:43;;;;;;;4.15;2.75;;;24.20;99.90;;;;;;4944802;28;20047;-82
2022/08/10 08:14:10;;;;;;;4.38;2.67;;;24.40;99.90;;;;;;4976268;28;20047;-82
2022/08/10 08:16:40;;;;;;;6.68;2.30;;;24.60;99.90;;;;;;4965176;28;20046;-82
2022/08/10 08:19:07;;;;;;;4.00;2.40;;;24.90;99.90;;;;;;4963885;28;20046;-80
2022/08/10 08:21:34;;;;;;;4.00;2.22;;;25.00;99.90;;;;;;4962154;28;20548;-82
2022/08/10 08:24:01;;;;;;;3.97;2.25;;;25.10;99.90;;;;;;4977518;28;20047;-76
2022/08/10 08:26:28;;;;;;;5.05;2.70;;;25.30;99.90;;;;;;4947680;28;20050;-81
2022/08/10 08:28:55;;;;;;;3.65;2.05;;;25.50;99.90;;;;;;4978470;28;20054;-82
2022/08/10 08:31:22;;;;;;;4.40;2.00;;;25.70;99.90;;;;;;4963102;28;20130;-82
2022/08/10 08:33:49;;;;;;;3.80;1.77;;;25.90;99.90;;;;;;4960998;28;20051;-80
2022/08/10 08:36:17;;;;;;;4.60;2.25;;;26.10;99.90;;;;;;4994383;28;20074;-80
2022/08/10 08:38:45;;;;;;;3.50;2.00;;;26.30;99.90;;;;;;4978331;28;20050;-82
2022/08/10 08:41:49;;;;;;;4.60;2.10;;;26.40;99.90;;;;;;4942187;28;20066;-83
2022/08/10 08:44:35;;;;;;;4.78;2.35;;;26.60;99.90;;;;;;4991668;28;20053;-79
2022/08/10 08:47:21;;;;;;;5.22;1.95;;;26.70;99.90;;;;;;4947889;28;20089;-80
2022/08/10 08:49:59;;;;;;;5.80;2.65;;;26.90;99.90;;;;;;4995592;28;20061;-80
2022/08/10 08:52:42;;;;;;;4.72;2.00;;;27.10;99.90;;;;;;4974179;28;20050;-82
2022/08/10 08:55:29;;;;;;;4.18;1.88;;;27.20;99.90;;;;;;4951919;28;20511;-77
2022/08/10 08:58:51;;;;;;;5.22;1.90;;;27.50;99.90;;;;;;4977953;28;20085;-79
2022/08/10 09:01:34;;;;;;;2.60;1.65;;;27.80;99.90;;;;;;4917824;29;20055;-77
2022/08/10 09:04:10;;;;;;;3.58;1.58;;;28.00;99.90;;;;;;4995883;28;20078;-79
2022/08/10 09:07:13;;;;;;;3.50;1.75;;;28.20;99.90;;;;;;4979280;28;20135;-81
2022/08/10 09:10:16;;;;;;;2.03;1.60;;;28.50;99.90;;;;;;4978794;28;20069;-79
2022/08/10 09:13:17;;;;;;;3.80;1.50;;;28.70;99.90;;;;;;4977820;28;20050;-79
2022/08/10 09:15:55;;;;;;;3.13;1.65;;;28.90;99.90;;;;;;4995637;28;20050;-78
2022/08/10 09:18:40;;;;;;;2.20;1.48;;;29.10;99.90;;;;;;4964680;28;20053;-78
2022/08/10 09:21:22;;;;;;;2.83;1.45;;;29.30;99.90;;;;;;4979848;28;20047;-78
2022/08/10 09:23:58;;;;;;;3.05;1.38;;;29.50;99.90;;;;;;4978271;28;20155;-78
2022/08/10 09:26:49;;;;;;;3.47;1.23;;;29.70;99.90;;;;;;4978564;28;20803;-81
2022/08/10 09:29:23;;;;;;;3.45;1.55;;;29.90;99.70;;;;;;4978165;28;20055;-81
2022/08/10 09:32:18;;;;;;;2.42;1.30;;;30.10;99.90;;;;;;4979083;28;20137;-81
2022/08/10 09:35:06;;;;;;;2.42;1.70;;;30.30;99.40;;;;;;4947423;28;20049;-80
2022/08/10 09:37:58;;;;;;;2.00;1.23;;;30.40;99.00;;;;;;4998061;28;20056;-81
2022/08/10 09:40:49;;;;;;;2.80;1.20;;;30.60;98.10;;;;;;4948482;28;20423;-80
2022/08/10 09:43:27;;;;;;;3.60;1.55;;;30.90;97.10;;;;;;4979311;28;20073;-81
2022/08/10 09:46:02;;;;;;;2.40;1.30;;;31.10;97.20;;;;;;4977092;28;20484;-79
2022/08/10 09:48:57;;;;;;;2.75;1.20;;;31.30;97.00;;;;;;4979589;28;20062;-79
2022/08/10 09:52:01;;;;;;;3.28;1.27;;;31.30;95.30;;;;;;4979117;28;20051;-81
2022/08/10 09:54:47;;;;;;;3.60;1.30;;;31.30;95.70;;;;;;4939556;29;20118;-80
2022/08/10 09:57:19;;;;;;;2.67;1.30;;;31.40;95.50;;;;;;4993524;28;20094;-77
2022/08/10 10:00:02;;;;;;;6.18;1.48;;;31.50;95.70;;;;;;4991942;28;20503;-81
2022/08/10 10:02:42;;;;;;;2.63;1.35;;;31.70;95.40;;;;;;4994388;28;20569;-81
2022/08/10 10:05:31;;;;;;;3.33;1.55;;;32.00;95.20;;;;;;4978743;28;20050;-82
2022/08/10 10:08:39;;;;;;;2.38;1.02;;;32.30;94.30;;;;;;4946994;28;20407;-81
2022/08/10 10:11:42;;;;;;;4.20;1.35;;;32.60;93.60;;;;;;4921145;28;20100;-81
2022/08/10 10:18:01;;;;;;;2.22;1.20;;;32.90;92.50;;;;;;4902176;29;20102;-82
2022/08/10 10:21:06;;;;;;;1.92;1.10;;;33.10;90.50;;;;;;4977563;28;20085;-81
2022/08/10 10:24:08;;;;;;;2.60;1.20;;;33.30;90.00;;;;;;4989020;28;20468;-83
2022/08/10 10:26:55;;;;;;;2.30;1.10;;;33.40;89.70;;;;;;4946658;28;20579;-81
2022/08/10 10:29:41;;;;;;;3.35;0.90;;;33.50;84.80;;;;;;4997722;28;20050;-82
2022/08/10 10:32:10;;;;;;;;;;;33.30;83.70;;;;;;4960651;28;20069;-82
2022/08/10 10:35:00;;;;;;;3.15;1.00;;;33.20;84.90;;;;;;4998471;28;19925;-81
2022/08/10 10:37:28;;;;;;;3.40;1.10;;;33.30;85.60;;;;;;4981603;28;20436;-81
2022/08/10 10:39:54;;;;;;;1.88;1.10;;;33.40;88.50;;;;;;4997820;28;20053;-79
2022/08/10 10:42:20;;;;;;;4.15;1.08;;;33.40;87.10;;;;;;4967212;28;20109;-82
2022/08/10 10:45:05;;;;;;;3.85;1.50;;;33.30;85.10;;;;;;4998445;28;20043;-83
2022/08/10 10:48:08;;;;;;;2.85;1.20;;;33.40;84.20;;;;;;4997598;28;20593;-81
2022/08/10 10:50:57;;;;;;;2.38;1.13;;;33.30;79.60;;;;;;4994479;28;20104;-82
2022/08/10 10:53:34;;;;;;;1.58;1.15;;;33.40;82.50;;;;;;4993573;28;20409;-82
2022/08/10 10:56:21;;;;;;;2.10;1.23;;;33.60;81.50;;;;;;4993256;28;20056;-80
2022/08/10 10:59:08;;;;;;;2.90;1.30;;;33.70;80.80;;;;;;4994258;28;20055;-82
2022/08/10 11:01:43;;;;;;;2.38;1.25;;;33.60;80.50;;;;;;4976948;28;20050;-80
2022/08/10 11:04:35;;;;;;;3.05;1.00;;;33.60;80.80;;;;;;4995502;28;20047;-80
2022/08/10 11:07:16;;;;;;;3.72;1.65;;;33.50;80.20;;;;;;4929022;28;20058;-80
2022/08/10 11:10:08;;;;;;;2.20;0.88;;;33.70;80.20;;;;;;4986674;28;20130;-81
2022/08/10 11:12:43;;;;;;;2.03;1.05;;;33.80;79.10;;;;;;4976954;28;20066;-81
2022/08/10 11:15:27;;;;;;;3.45;1.10;;;34.00;79.30;;;;;;4962847;28;20260;-80
2022/08/10 11:18:14;;;;;;;2.88;1.05;;;34.30;79.00;;;;;;4994162;28;20046;-81
2022/08/10 11:20:53;;;;;;;2.47;0.98;;;34.50;75.70;;;;;;4946713;28;20058;-81
2022/08/10 11:23:33;;;;;;;2.67;0.80;;;34.80;76.90;;;;;;4993602;28;20045;-80
2022/08/10 11:26:12;;;;;;;2.67;1.00;;;35.00;75.90;;;;;;4995050;28;20130;-79
2022/08/10 11:28:48;;;;;;;2.70;1.10;;;35.20;74.20;;;;;;4958782;28;20377;-78
2022/08/10 11:31:37;;;;;;;3.92;1.20;;;35.00;75.00;;;;;;4980686;28;20042;-80
2022/08/10 11:34:14;;;;;;;2.20;0.90;;;35.20;74.40;;;;;;4992351;28;20133;-82
2022/08/10 11:37:09;;;;;;;2.38;0.88;;;35.30;73.90;;;;;;4976969;28;20105;-83
2022/08/10 11:39:44;;;;;;;1.73;1.17;;;35.50;72.40;;;;;;4992766;28;20140;-80
2022/08/10 11:42:15;;;;;;;2.40;1.20;;;35.50;69.80;;;;;;4978699;28;20054;-82
2022/08/10 11:45:02;;;;;;;2.15;0.95;;;35.50;72.30;;;;;;4998349;28;20124;-82
2022/08/10 11:47:45;;;;;;;1.70;0.73;;;35.50;70.90;;;;;;4967150;28;20070;-80
2022/08/10 11:50:27;;;;;;;1.40;0.80;;;35.70;69.60;;;;;;4996282;28;20054;-81
2022/08/10 11:53:05;;;;;;;2.42;0.90;;;35.70;68.90;;;;;;4998879;28;20057;-81
2022/08/10 11:55:33;;;;;;;3.60;1.10;;;35.70;69.30;;;;;;5000141;28;20109;-77
2022/08/10 12:01:01;;;;;;;1.70;0.80;;;35.90;69.70;;;;;;4980814;28;20043;-82
2022/08/10 12:03:31;;;;;;;3.90;0.90;;;36.00;69.50;;;;;;5003096;28;20416;-84
2022/08/10 12:05:58;;;;;;;4.75;1.00;;;36.10;68.90;;;;;;4999286;28;20486;-80
2022/08/10 12:08:27;;;;;;;2.00;0.98;;;36.30;69.00;;;;;;4936428;28;20452;-78
2022/08/10 12:10:53;;;;;;;1.92;0.98;;;36.50;68.60;;;;;;4966759;28;20054;-80
2022/08/10 12:13:30;;;;;;;5.00;1.20;;;36.40;67.50;;;;;;4966827;28;20479;-79
2022/08/10 12:16:13;;;;;;;2.92;0.98;;;36.10;66.30;;;;;;4949636;28;20106;-81
2022/08/10 12:19:02;;;;;;;2.50;1.13;;;35.90;66.30;;;;;;4982047;28;20046;-77
2022/08/10 12:21:37;;;;;;;4.40;1.20;;;35.70;66.70;;;;;;4983741;28;20459;-80
2022/08/10 12:24:36;;;;;;;3.28;1.00;;;35.50;65.80;;;;;;4998555;28;20054;-80
2022/08/10 12:27:19;;;;;;;1.58;1.00;;;35.20;65.70;;;;;;4980379;28;20485;-80
2022/08/10 12:29:54;;;;;;;3.67;1.27;;;34.80;66.20;;;;;;4991759;28;20551;-81
2022/08/10 12:32:54;;;;;;;4.63;1.30;;;34.90;66.60;;;;;;4977928;28;20048;-81
2022/08/10 12:35:45;;;;;;;2.50;1.10;;;35.20;66.90;;;;;;4939705;28;20042;-82
2022/08/10 12:38:20;;;;;;;2.60;1.20;;;35.30;66.60;;;;;;4977801;28;20408;-82
2022/08/10 12:40:58;;;;;;;3.30;1.00;;;35.30;66.90;;;;;;4961382;28;20373;-83
2022/08/10 12:43:40;;;;;;;2.80;1.08;;;35.60;67.70;;;;;;4983386;28;20050;-81
2022/08/10 12:46:31;;;;;;;3.10;1.30;;;35.90;67.90;;;;;;4974238;28;20467;-82
2022/08/10 12:49:10;;;;;;;3.03;1.40;;;36.10;67.00;;;;;;4977023;28;20058;-82
2022/08/10 12:51:45;;;;;;;1.70;0.90;;;36.10;67.80;;;;;;4990279;28;20046;-80
2022/08/10 12:54:21;;;;;;;2.85;1.15;;;36.20;67.40;;;;;;4980514;28;20078;-79
2022/08/10 12:56:58;;;;;;;3.92;0.95;;;36.30;66.60;;;;;;4979879;28;20054;-80
2022/08/10 12:59:26;;;;;;;2.58;1.10;;;36.30;65.80;;;;;;4960039;28;20050;-80
2022/08/10 13:01:54;;;;;;;2.22;1.35;;;36.10;65.50;;;;;;4979078;28;20042;-81
2022/08/10 13:04:34;;;;;;;3.20;1.80;;;36.10;66.50;;;;;;4963139;28;20080;-81
2022/08/10 13:07:05;;;;;;;5.43;1.80;;;36.20;68.00;;;;;;4948942;28;20134;-80
2022/08/10 13:09:32;;;;;;;3.05;1.40;;;36.20;68.30;;;;;;4955190;28;20138;-80
2022/08/10 13:12:16;;;;;;;4.15;1.50;;;36.40;68.30;;;;;;4960736;28;20046;-78
2022/08/10 13:14:47;;;;;;;2.35;1.58;;;36.60;68.80;;;;;;4981366;28;20061;-81
2022/08/10 13:17:22;;;;;;;2.85;1.80;;;36.50;68.20;;;;;;4982329;28;20504;-81
2022/08/10 13:19:51;;;;;;;5.10;2.25;;;36.60;68.70;;;;;;4975652;28;20065;-82
2022/08/10 13:22:19;;;;;;;3.85;1.70;;;36.60;68.30;;;;;;4991813;28;20131;-80
2022/08/10 13:24:50;;;;;;;3.30;1.80;;;36.40;68.40;;;;;;4983802;28;20046;-78
2022/08/10 13:27:25;;;;;;;3.22;1.80;;;36.20;68.70;;;;;;4976422;28;20061;-80
2022/08/10 13:29:59;;;;;;;2.67;1.40;;;36.30;68.70;;;;;;4989490;28;20038;-81